Portada
METAR-TAF:

METAR-TAF

Aeroports :

Pacific Missile Test Facility Barking Sands

Kekaha, Hawaii, Estats Units d'Amèrica

latitud: 22-02-11N, longitud: 159-47-11W, altitud: 4 m

Observació

L'informe es va fer fa 1 hora i 1 minuts, a les 15:56 UTC
Vent 4 kt del Est
Temperatura 22°C
Humitat 78%
Pressió 1017 hPa
Visibilitat: 16.1 km
Cel clar

METAR: PHBK 251556Z AUTO 09004KT 10SM CLR 22/18 A3004 RMK AO2 SLP175 T02220183

Hora: 06:57 (16:57 UTC)


TAF: manca

Observacions i pronòstics meteorològics de més de 4000 aeroports (METAR i TAF).

Les estacions disponibles són els punts grocs i vermells al mapa.

Posi el ratolí al punt desitjat per veure el nom de l'estació.

Feu clic per veure les observacions i els pronòstics meteorològics.

Per canviar el mapa: feu clic els botons verds amb una creu de color negre per apropar; al botó verd amb un guió per allunyar la imatge; o en les fletxes verdes per a mapes adjacents.


METAR-TAF: